sensor_id;sensor_type;location;lat;lon;timestamp;temperature;humidity
19930;DHT22;10127;47.780;9.606;2023-06-05T00:01:36;16.90;90.80
19930;DHT22;10127;47.780;9.606;2023-06-05T00:04:02;16.80;90.90
19930;DHT22;10127;47.780;9.606;2023-06-05T00:06:29;16.80;90.90
19930;DHT22;10127;47.780;9.606;2023-06-05T00:08:54;16.80;91.00
19930;DHT22;10127;47.780;9.606;2023-06-05T00:11:20;16.70;91.10
19930;DHT22;10127;47.780;9.606;2023-06-05T00:13:47;16.70;91.10
19930;DHT22;10127;47.780;9.606;2023-06-05T00:16:12;16.70;91.20
19930;DHT22;10127;47.780;9.606;2023-06-05T00:18:38;16.60;91.20
19930;DHT22;10127;47.780;9.606;2023-06-05T00:21:03;16.60;91.20
19930;DHT22;10127;47.780;9.606;2023-06-05T00:23:29;16.60;91.20
19930;DHT22;10127;47.780;9.606;2023-06-05T00:25:55;16.50;91.40
19930;DHT22;10127;47.780;9.606;2023-06-05T00:28:20;16.50;91.40
19930;DHT22;10127;47.780;9.606;2023-06-05T00:30:46;16.50;91.50
19930;DHT22;10127;47.780;9.606;2023-06-05T00:33:11;16.30;91.70
19930;DHT22;10127;47.780;9.606;2023-06-05T00:35:38;16.30;91.80
19930;DHT22;10127;47.780;9.606;2023-06-05T00:38:04;16.20;91.90
19930;DHT22;10127;47.780;9.606;2023-06-05T00:40:32;16.20;92.10
19930;DHT22;10127;47.780;9.606;2023-06-05T00:42:57;16.20;92.00
19930;DHT22;10127;47.780;9.606;2023-06-05T00:45:23;16.20;92.10
19930;DHT22;10127;47.780;9.606;2023-06-05T00:47:49;16.20;92.00
19930;DHT22;10127;47.780;9.606;2023-06-05T00:50:15;16.10;92.10
19930;DHT22;10127;47.780;9.606;2023-06-05T00:52:43;16.00;92.20
19930;DHT22;10127;47.780;9.606;2023-06-05T00:55:10;16.00;92.30
19930;DHT22;10127;47.780;9.606;2023-06-05T00:57:38;16.00;92.30
19930;DHT22;10127;47.780;9.606;2023-06-05T01:00:05;15.90;92.50
19930;DHT22;10127;47.780;9.606;2023-06-05T01:02:32;15.90;92.60
19930;DHT22;10127;47.780;9.606;2023-06-05T01:04:59;15.90;92.60
19930;DHT22;10127;47.780;9.606;2023-06-05T01:07:25;15.90;92.60
19930;DHT22;10127;47.780;9.606;2023-06-05T01:09:53;15.90;92.70
19930;DHT22;10127;47.780;9.606;2023-06-05T01:12:35;15.80;92.80
19930;DHT22;10127;47.780;9.606;2023-06-05T01:15:02;15.70;93.10
19930;DHT22;10127;47.780;9.606;2023-06-05T01:17:30;15.70;93.20
19930;DHT22;10127;47.780;9.606;2023-06-05T01:19:57;15.60;93.30
19930;DHT22;10127;47.780;9.606;2023-06-05T01:22:25;15.60;93.60
19930;DHT22;10127;47.780;9.606;2023-06-05T01:24:51;15.50;93.70
19930;DHT22;10127;47.780;9.606;2023-06-05T01:30:15;15.40;93.80
19930;DHT22;10127;47.780;9.606;2023-06-05T01:32:54;15.30;94.00
19930;DHT22;10127;47.780;9.606;2023-06-05T01:35:22;15.10;94.30
19930;DHT22;10127;47.780;9.606;2023-06-05T01:37:53;15.10;94.60
19930;DHT22;10127;47.780;9.606;2023-06-05T01:40:22;15.00;94.70
19930;DHT22;10127;47.780;9.606;2023-06-05T01:42:49;15.10;94.70
19930;DHT22;10127;47.780;9.606;2023-06-05T01:45:16;15.00;94.90
19930;DHT22;10127;47.780;9.606;2023-06-05T01:47:42;14.90;95.10
19930;DHT22;10127;47.780;9.606;2023-06-05T01:50:09;14.70;95.20
19930;DHT22;10127;47.780;9.606;2023-06-05T01:52:38;14.70;95.30
19930;DHT22;10127;47.780;9.606;2023-06-05T01:55:06;14.70;95.40
19930;DHT22;10127;47.780;9.606;2023-06-05T01:57:32;14.70;95.40
19930;DHT22;10127;47.780;9.606;2023-06-05T01:59:59;14.80;95.80
19930;DHT22;10127;47.780;9.606;2023-06-05T02:02:26;14.70;95.50
19930;DHT22;10127;47.780;9.606;2023-06-05T02:04:54;14.70;95.50
19930;DHT22;10127;47.780;9.606;2023-06-05T02:07:20;14.70;95.50
19930;DHT22;10127;47.780;9.606;2023-06-05T02:09:46;14.70;95.50
19930;DHT22;10127;47.780;9.606;2023-06-05T02:12:12;14.60;95.70
19930;DHT22;10127;47.780;9.606;2023-06-05T02:14:39;14.60;95.70
19930;DHT22;10127;47.780;9.606;2023-06-05T02:17:10;14.60;95.60
19930;DHT22;10127;47.780;9.606;2023-06-05T02:19:39;14.60;95.70
19930;DHT22;10127;47.780;9.606;2023-06-05T02:22:06;14.60;95.70
19930;DHT22;10127;47.780;9.606;2023-06-05T02:24:31;14.50;95.70
19930;DHT22;10127;47.780;9.606;2023-06-05T02:26:57;14.60;95.80
19930;DHT22;10127;47.780;9.606;2023-06-05T02:29:23;14.60;95.80
19930;DHT22;10127;47.780;9.606;2023-06-05T02:31:48;14.50;95.90
19930;DHT22;10127;47.780;9.606;2023-06-05T02:34:14;14.50;95.90
19930;DHT22;10127;47.780;9.606;2023-06-05T02:36:42;14.50;95.90
19930;DHT22;10127;47.780;9.606;2023-06-05T02:39:11;14.50;96.00
19930;DHT22;10127;47.780;9.606;2023-06-05T02:41:37;14.40;96.20
19930;DHT22;10127;47.780;9.606;2023-06-05T02:44:02;14.30;96.30
19930;DHT22;10127;47.780;9.606;2023-06-05T02:46:28;14.40;96.20
19930;DHT22;10127;47.780;9.606;2023-06-05T02:48:53;14.50;96.00
19930;DHT22;10127;47.780;9.606;2023-06-05T03:11:58;14.60;95.70
19930;DHT22;10127;47.780;9.606;2023-06-05T03:14:24;14.60;95.60
19930;DHT22;10127;47.780;9.606;2023-06-05T03:16:50;14.60;95.60
19930;DHT22;10127;47.780;9.606;2023-06-05T03:19:16;14.60;95.70
19930;DHT22;10127;47.780;9.606;2023-06-05T03:21:41;14.40;95.90
19930;DHT22;10127;47.780;9.606;2023-06-05T03:24:09;14.30;96.10
19930;DHT22;10127;47.780;9.606;2023-06-05T03:26:39;14.30;96.10
19930;DHT22;10127;47.780;9.606;2023-06-05T03:29:05;14.40;96.10
19930;DHT22;10127;47.780;9.606;2023-06-05T03:31:31;14.40;96.10
19930;DHT22;10127;47.780;9.606;2023-06-05T03:33:57;14.30;96.10
19930;DHT22;10127;47.780;9.606;2023-06-05T03:36:24;14.30;96.20
19930;DHT22;10127;47.780;9.606;2023-06-05T03:38:49;14.30;96.30
19930;DHT22;10127;47.780;9.606;2023-06-05T03:41:15;14.30;96.40
19930;DHT22;10127;47.780;9.606;2023-06-05T03:43:41;14.20;96.40
19930;DHT22;10127;47.780;9.606;2023-06-05T03:46:07;14.20;96.50
19930;DHT22;10127;47.780;9.606;2023-06-05T03:48:32;14.20;96.50
19930;DHT22;10127;47.780;9.606;2023-06-05T03:50:58;14.30;96.50
19930;DHT22;10127;47.780;9.606;2023-06-05T03:53:26;14.30;96.50
19930;DHT22;10127;47.780;9.606;2023-06-05T03:55:55;14.40;96.30
19930;DHT22;10127;47.780;9.606;2023-06-05T03:58:21;14.40;96.10
19930;DHT22;10127;47.780;9.606;2023-06-05T04:00:48;14.50;96.00
19930;DHT22;10127;47.780;9.606;2023-06-05T04:03:14;14.60;95.90
19930;DHT22;10127;47.780;9.606;2023-06-05T04:05:41;14.60;95.80
19930;DHT22;10127;47.780;9.606;2023-06-05T04:08:08;14.60;95.80
19930;DHT22;10127;47.780;9.606;2023-06-05T04:10:35;14.70;95.70
19930;DHT22;10127;47.780;9.606;2023-06-05T04:13:07;14.70;95.70
19930;DHT22;10127;47.780;9.606;2023-06-05T04:15:33;14.70;95.60
19930;DHT22;10127;47.780;9.606;2023-06-05T04:17:59;14.70;95.70
19930;DHT22;10127;47.780;9.606;2023-06-05T04:20:25;14.70;95.80
19930;DHT22;10127;47.780;9.606;2023-06-05T04:22:50;14.70;95.80
19930;DHT22;10127;47.780;9.606;2023-06-05T04:25:16;14.70;95.90
19930;DHT22;10127;47.780;9.606;2023-06-05T04:27:43;14.80;96.00
19930;DHT22;10127;47.780;9.606;2023-06-05T04:30:11;14.90;95.90
19930;DHT22;10127;47.780;9.606;2023-06-05T04:32:38;15.00;95.40
19930;DHT22;10127;47.780;9.606;2023-06-05T04:35:10;15.00;95.20
19930;DHT22;10127;47.780;9.606;2023-06-05T04:37:38;15.00;95.30
19930;DHT22;10127;47.780;9.606;2023-06-05T04:40:05;14.90;95.20
19930;DHT22;10127;47.780;9.606;2023-06-05T04:42:34;15.00;95.70
19930;DHT22;10127;47.780;9.606;2023-06-05T04:45:03;15.00;95.00
19930;DHT22;10127;47.780;9.606;2023-06-05T04:47:29;14.80;95.20
19930;DHT22;10127;47.780;9.606;2023-06-05T04:49:58;14.80;95.40
19930;DHT22;10127;47.780;9.606;2023-06-05T04:52:24;14.80;95.20
19930;DHT22;10127;47.780;9.606;2023-06-05T04:54:50;14.70;95.30
19930;DHT22;10127;47.780;9.606;2023-06-05T04:57:16;14.70;95.40
19930;DHT22;10127;47.780;9.606;2023-06-05T04:59:43;14.70;95.60
19930;DHT22;10127;47.780;9.606;2023-06-05T05:02:08;14.90;95.20
19930;DHT22;10127;47.780;9.606;2023-06-05T05:04:34;15.00;95.10
19930;DHT22;10127;47.780;9.606;2023-06-05T05:07:00;15.00;94.90
19930;DHT22;10127;47.780;9.606;2023-06-05T05:09:38;15.00;94.90
19930;DHT22;10127;47.780;9.606;2023-06-05T05:12:04;15.00;94.70
19930;DHT22;10127;47.780;9.606;2023-06-05T05:14:30;15.00;94.70
19930;DHT22;10127;47.780;9.606;2023-06-05T05:16:55;15.00;94.80
19930;DHT22;10127;47.780;9.606;2023-06-05T05:19:21;15.10;94.70
19930;DHT22;10127;47.780;9.606;2023-06-05T05:21:49;15.50;94.50
19930;DHT22;10127;47.780;9.606;2023-06-05T05:24:15;15.60;93.90
19930;DHT22;10127;47.780;9.606;2023-06-05T05:26:41;15.60;93.90
19930;DHT22;10127;47.780;9.606;2023-06-05T05:29:07;15.80;93.40
19930;DHT22;10127;47.780;9.606;2023-06-05T05:31:33;15.80;93.50
19930;DHT22;10127;47.780;9.606;2023-06-05T05:33:58;15.80;93.20
19930;DHT22;10127;47.780;9.606;2023-06-05T05:36:25;15.90;93.10
19930;DHT22;10127;47.780;9.606;2023-06-05T05:38:52;16.10;93.00
19930;DHT22;10127;47.780;9.606;2023-06-05T05:41:17;16.10;92.70
19930;DHT22;10127;47.780;9.606;2023-06-05T05:43:43;16.20;92.70
19930;DHT22;10127;47.780;9.606;2023-06-05T05:46:09;16.30;92.60
19930;DHT22;10127;47.780;9.606;2023-06-05T05:48:36;16.10;92.50
19930;DHT22;10127;47.780;9.606;2023-06-05T05:51:01;16.30;92.40
19930;DHT22;10127;47.780;9.606;2023-06-05T05:53:27;16.40;92.20
19930;DHT22;10127;47.780;9.606;2023-06-05T05:56:01;16.30;92.00
19930;DHT22;10127;47.780;9.606;2023-06-05T05:58:26;16.40;92.20
19930;DHT22;10127;47.780;9.606;2023-06-05T06:00:52;16.50;91.70
19930;DHT22;10127;47.780;9.606;2023-06-05T06:03:18;16.50;92.00
19930;DHT22;10127;47.780;9.606;2023-06-05T06:05:43;16.60;91.90
19930;DHT22;10127;47.780;9.606;2023-06-05T06:08:10;16.50;91.70
19930;DHT22;10127;47.780;9.606;2023-06-05T06:10:36;16.60;91.70
19930;DHT22;10127;47.780;9.606;2023-06-05T06:13:02;16.70;91.60
19930;DHT22;10127;47.780;9.606;2023-06-05T06:15:27;16.70;91.60
19930;DHT22;10127;47.780;9.606;2023-06-05T06:17:53;16.80;91.60
19930;DHT22;10127;47.780;9.606;2023-06-05T06:20:19;16.90;91.40
19930;DHT22;10127;47.780;9.606;2023-06-05T06:22:45;17.00;91.40
19930;DHT22;10127;47.780;9.606;2023-06-05T06:25:11;17.10;91.50
19930;DHT22;10127;47.780;9.606;2023-06-05T06:27:38;17.20;91.40
19930;DHT22;10127;47.780;9.606;2023-06-05T06:30:04;17.30;91.30
19930;DHT22;10127;47.780;9.606;2023-06-05T06:32:30;17.30;91.30
19930;DHT22;10127;47.780;9.606;2023-06-05T06:34:56;17.50;91.10
19930;DHT22;10127;47.780;9.606;2023-06-05T06:37:22;17.50;90.90
19930;DHT22;10127;47.780;9.606;2023-06-05T06:39:48;17.60;91.00
19930;DHT22;10127;47.780;9.606;2023-06-05T06:42:13;17.70;91.00
19930;DHT22;10127;47.780;9.606;2023-06-05T06:44:39;17.60;91.00
19930;DHT22;10127;47.780;9.606;2023-06-05T06:47:05;17.60;91.00
19930;DHT22;10127;47.780;9.606;2023-06-05T06:49:31;17.50;91.00
19930;DHT22;10127;47.780;9.606;2023-06-05T06:51:57;17.40;91.30
19930;DHT22;10127;47.780;9.606;2023-06-05T06:54:23;17.40;91.60
19930;DHT22;10127;47.780;9.606;2023-06-05T06:56:50;17.60;91.50
19930;DHT22;10127;47.780;9.606;2023-06-05T06:59:16;17.70;91.40
19930;DHT22;10127;47.780;9.606;2023-06-05T07:01:47;17.60;91.30
19930;DHT22;10127;47.780;9.606;2023-06-05T07:04:16;17.70;91.30
19930;DHT22;10127;47.780;9.606;2023-06-05T07:06:45;17.60;91.50
19930;DHT22;10127;47.780;9.606;2023-06-05T07:09:11;17.70;91.50
19930;DHT22;10127;47.780;9.606;2023-06-05T07:11:37;17.80;91.90
19930;DHT22;10127;47.780;9.606;2023-06-05T07:14:02;18.00;91.30
19930;DHT22;10127;47.780;9.606;2023-06-05T07:16:28;18.00;91.40
19930;DHT22;10127;47.780;9.606;2023-06-05T07:18:54;18.10;91.40
19930;DHT22;10127;47.780;9.606;2023-06-05T07:21:21;18.30;91.20
19930;DHT22;10127;47.780;9.606;2023-06-05T07:23:50;18.40;91.30
19930;DHT22;10127;47.780;9.606;2023-06-05T07:26:19;18.50;91.10
19930;DHT22;10127;47.780;9.606;2023-06-05T07:28:45;18.50;91.00
19930;DHT22;10127;47.780;9.606;2023-06-05T07:31:13;18.40;91.00
19930;DHT22;10127;47.780;9.606;2023-06-05T07:33:39;18.50;91.20
19930;DHT22;10127;47.780;9.606;2023-06-05T07:36:05;18.60;91.10
19930;DHT22;10127;47.780;9.606;2023-06-05T07:38:30;18.60;91.20
19930;DHT22;10127;47.780;9.606;2023-06-05T07:40:57;18.60;91.30
19930;DHT22;10127;47.780;9.606;2023-06-05T07:43:24;18.70;91.50
19930;DHT22;10127;47.780;9.606;2023-06-05T07:45:50;18.80;91.50
19930;DHT22;10127;47.780;9.606;2023-06-05T07:48:15;18.90;91.50
19930;DHT22;10127;47.780;9.606;2023-06-05T07:50:41;19.00;91.40
19930;DHT22;10127;47.780;9.606;2023-06-05T07:53:06;19.00;91.30
19930;DHT22;10127;47.780;9.606;2023-06-05T07:55:32;19.10;91.40
19930;DHT22;10127;47.780;9.606;2023-06-05T07:57:58;19.10;91.50
19930;DHT22;10127;47.780;9.606;2023-06-05T08:00:26;19.10;91.70
19930;DHT22;10127;47.780;9.606;2023-06-05T08:02:52;19.20;91.60
19930;DHT22;10127;47.780;9.606;2023-06-05T08:05:18;19.30;91.60
19930;DHT22;10127;47.780;9.606;2023-06-05T08:07:45;19.40;91.70
19930;DHT22;10127;47.780;9.606;2023-06-05T08:10:11;19.40;91.90
19930;DHT22;10127;47.780;9.606;2023-06-05T08:12:36;19.50;92.00
19930;DHT22;10127;47.780;9.606;2023-06-05T08:15:02;19.70;92.00
19930;DHT22;10127;47.780;9.606;2023-06-05T08:17:28;19.80;91.60
19930;DHT22;10127;47.780;9.606;2023-06-05T08:19:54;19.90;91.60
19930;DHT22;10127;47.780;9.606;2023-06-05T08:22:20;20.00;91.50
19930;DHT22;10127;47.780;9.606;2023-06-05T08:24:46;20.00;91.60
19930;DHT22;10127;47.780;9.606;2023-06-05T08:27:13;20.10;91.80
19930;DHT22;10127;47.780;9.606;2023-06-05T08:29:39;20.30;92.00
19930;DHT22;10127;47.780;9.606;2023-06-05T08:32:05;20.30;91.70
19930;DHT22;10127;47.780;9.606;2023-06-05T08:34:38;20.30;91.60
19930;DHT22;10127;47.780;9.606;2023-06-05T08:37:04;20.30;92.00
19930;DHT22;10127;47.780;9.606;2023-06-05T08:39:29;20.20;92.10
19930;DHT22;10127;47.780;9.606;2023-06-05T08:42:00;20.40;92.20
19930;DHT22;10127;47.780;9.606;2023-06-05T08:44:28;20.50;92.10
19930;DHT22;10127;47.780;9.606;2023-06-05T08:47:03;20.60;92.00
19930;DHT22;10127;47.780;9.606;2023-06-05T08:49:29;20.70;92.00
19930;DHT22;10127;47.780;9.606;2023-06-05T08:52:06;20.80;91.90
19930;DHT22;10127;47.780;9.606;2023-06-05T08:54:37;20.90;91.60
19930;DHT22;10127;47.780;9.606;2023-06-05T08:57:04;21.00;92.00
19930;DHT22;10127;47.780;9.606;2023-06-05T08:59:30;21.00;91.90
19930;DHT22;10127;47.780;9.606;2023-06-05T09:01:56;21.00;92.10
19930;DHT22;10127;47.780;9.606;2023-06-05T09:04:23;21.00;91.70
19930;DHT22;10127;47.780;9.606;2023-06-05T09:06:56;21.10;91.50
19930;DHT22;10127;47.780;9.606;2023-06-05T09:09:23;21.20;90.80
19930;DHT22;10127;47.780;9.606;2023-06-05T09:12:04;21.30;90.80
19930;DHT22;10127;47.780;9.606;2023-06-05T09:14:29;21.30;90.40
19930;DHT22;10127;47.780;9.606;2023-06-05T09:16:57;21.40;90.20
19930;DHT22;10127;47.780;9.606;2023-06-05T09:19:23;21.60;90.10
19930;DHT22;10127;47.780;9.606;2023-06-05T09:21:54;21.80;90.00
19930;DHT22;10127;47.780;9.606;2023-06-05T09:24:21;21.90;89.50
19930;DHT22;10127;47.780;9.606;2023-06-05T09:29:31;21.90;89.00
19930;DHT22;10127;47.780;9.606;2023-06-05T09:32:03;21.90;88.70
19930;DHT22;10127;47.780;9.606;2023-06-05T09:37:00;22.20;87.20
19930;DHT22;10127;47.780;9.606;2023-06-05T09:39:28;22.40;85.20
19930;DHT22;10127;47.780;9.606;2023-06-05T09:41:55;22.50;84.80
19930;DHT22;10127;47.780;9.606;2023-06-05T09:44:22;22.80;84.50
19930;DHT22;10127;47.780;9.606;2023-06-05T09:49:32;23.30;83.80
19930;DHT22;10127;47.780;9.606;2023-06-05T09:51:59;23.10;83.40
19930;DHT22;10127;47.780;9.606;2023-06-05T09:54:29;22.90;84.50
19930;DHT22;10127;47.780;9.606;2023-06-05T09:57:02;23.00;84.30
19930;DHT22;10127;47.780;9.606;2023-06-05T09:59:30;23.10;84.00
19930;DHT22;10127;47.780;9.606;2023-06-05T10:01:59;22.80;84.80
19930;DHT22;10127;47.780;9.606;2023-06-05T10:04:29;22.70;86.50
19930;DHT22;10127;47.780;9.606;2023-06-05T10:07:00;22.70;85.50
19930;DHT22;10127;47.780;9.606;2023-06-05T10:09:29;22.90;85.20
19930;DHT22;10127;47.780;9.606;2023-06-05T10:11:55;22.80;85.30
19930;DHT22;10127;47.780;9.606;2023-06-05T10:14:21;23.00;85.40
19930;DHT22;10127;47.780;9.606;2023-06-05T10:16:49;23.10;84.30
19930;DHT22;10127;47.780;9.606;2023-06-05T10:19:20;23.10;82.70
19930;DHT22;10127;47.780;9.606;2023-06-05T10:21:49;23.20;81.80
19930;DHT22;10127;47.780;9.606;2023-06-05T10:32:00;23.20;82.80
19930;DHT22;10127;47.780;9.606;2023-06-05T10:35:18;23.20;83.40
19930;DHT22;10127;47.780;9.606;2023-06-05T10:40:03;23.40;82.70
19930;DHT22;10127;47.780;9.606;2023-06-05T10:42:30;23.60;82.10
19930;DHT22;10127;47.780;9.606;2023-06-05T10:44:56;23.60;81.90
19930;DHT22;10127;47.780;9.606;2023-06-05T10:52:44;24.40;80.20
19930;DHT22;10127;47.780;9.606;2023-06-05T10:55:10;24.10;79.50
19930;DHT22;10127;47.780;9.606;2023-06-05T10:58:05;24.00;79.80
19930;DHT22;10127;47.780;9.606;2023-06-05T11:00:35;24.20;78.90
19930;DHT22;10127;47.780;9.606;2023-06-05T11:03:01;24.10;78.80
19930;DHT22;10127;47.780;9.606;2023-06-05T11:05:27;24.40;78.70
19930;DHT22;10127;47.780;9.606;2023-06-05T11:08:13;24.50;77.50
19930;DHT22;10127;47.780;9.606;2023-06-05T11:11:05;24.50;77.30
19930;DHT22;10127;47.780;9.606;2023-06-05T11:13:56;24.70;77.00
19930;DHT22;10127;47.780;9.606;2023-06-05T11:16:32;24.50;77.70
19930;DHT22;10127;47.780;9.606;2023-06-05T11:22:04;24.60;78.50
19930;DHT22;10127;47.780;9.606;2023-06-05T11:24:31;24.60;76.40
19930;DHT22;10127;47.780;9.606;2023-06-05T11:26:57;24.60;75.90
19930;DHT22;10127;47.780;9.606;2023-06-05T11:29:23;24.60;76.00
19930;DHT22;10127;47.780;9.606;2023-06-05T11:31:51;25.00;75.30
19930;DHT22;10127;47.780;9.606;2023-06-05T11:34:16;25.30;74.20
19930;DHT22;10127;47.780;9.606;2023-06-05T11:36:42;25.20;72.80
19930;DHT22;10127;47.780;9.606;2023-06-05T11:39:08;25.30;73.40
19930;DHT22;10127;47.780;9.606;2023-06-05T11:41:42;25.30;72.80
19930;DHT22;10127;47.780;9.606;2023-06-05T11:44:08;25.40;72.60
19930;DHT22;10127;47.780;9.606;2023-06-05T11:46:43;25.80;72.30
19930;DHT22;10127;47.780;9.606;2023-06-05T11:49:23;26.30;71.30
19930;DHT22;10127;47.780;9.606;2023-06-05T11:51:50;26.50;71.00
19930;DHT22;10127;47.780;9.606;2023-06-05T11:56:56;26.00;70.40
19930;DHT22;10127;47.780;9.606;2023-06-05T11:59:22;25.50;71.30
19930;DHT22;10127;47.780;9.606;2023-06-05T12:01:48;25.40;71.60
19930;DHT22;10127;47.780;9.606;2023-06-05T12:04:15;25.20;71.10
19930;DHT22;10127;47.780;9.606;2023-06-05T12:06:42;25.10;72.90
19930;DHT22;10127;47.780;9.606;2023-06-05T12:09:12;25.30;72.30
19930;DHT22;10127;47.780;9.606;2023-06-05T12:11:39;25.50;71.50
19930;DHT22;10127;47.780;9.606;2023-06-05T12:14:05;26.00;70.40
19930;DHT22;10127;47.780;9.606;2023-06-05T12:16:35;26.40;68.20
19930;DHT22;10127;47.780;9.606;2023-06-05T12:19:01;26.70;68.00
19930;DHT22;10127;47.780;9.606;2023-06-05T12:21:28;26.70;67.90
19930;DHT22;10127;47.780;9.606;2023-06-05T12:24:04;26.40;68.40
19930;DHT22;10127;47.780;9.606;2023-06-05T12:29:25;26.00;68.00
19930;DHT22;10127;47.780;9.606;2023-06-05T12:31:53;26.00;68.30
19930;DHT22;10127;47.780;9.606;2023-06-05T12:37:07;25.50;68.40
19930;DHT22;10127;47.780;9.606;2023-06-05T12:39:33;25.30;69.00
19930;DHT22;10127;47.780;9.606;2023-06-05T12:41:59;25.40;68.80
19930;DHT22;10127;47.780;9.606;2023-06-05T12:44:24;25.30;69.60
19930;DHT22;10127;47.780;9.606;2023-06-05T12:46:50;25.20;70.30
19930;DHT22;10127;47.780;9.606;2023-06-05T12:49:16;25.10;69.50
19930;DHT22;10127;47.780;9.606;2023-06-05T12:51:42;25.00;69.20
19930;DHT22;10127;47.780;9.606;2023-06-05T12:54:08;25.00;70.10
19930;DHT22;10127;47.780;9.606;2023-06-05T12:56:34;25.40;68.90
19930;DHT22;10127;47.780;9.606;2023-06-05T12:59:00;25.40;68.20
19930;DHT22;10127;47.780;9.606;2023-06-05T13:01:26;25.30;68.20
19930;DHT22;10127;47.780;9.606;2023-06-05T13:03:53;25.00;68.10
19930;DHT22;10127;47.780;9.606;2023-06-05T13:06:19;24.90;69.20
19930;DHT22;10127;47.780;9.606;2023-06-05T13:08:46;24.80;68.50
19930;DHT22;10127;47.780;9.606;2023-06-05T13:11:16;24.70;69.00
19930;DHT22;10127;47.780;9.606;2023-06-05T13:13:41;24.80;69.80
19930;DHT22;10127;47.780;9.606;2023-06-05T13:16:07;24.80;69.30
19930;DHT22;10127;47.780;9.606;2023-06-05T13:18:34;24.80;69.00
19930;DHT22;10127;47.780;9.606;2023-06-05T13:21:02;25.00;68.90
19930;DHT22;10127;47.780;9.606;2023-06-05T13:23:28;25.10;68.20
19930;DHT22;10127;47.780;9.606;2023-06-05T13:25:54;25.40;67.00
19930;DHT22;10127;47.780;9.606;2023-06-05T13:28:20;25.60;66.10
19930;DHT22;10127;47.780;9.606;2023-06-05T13:30:46;26.10;65.20
19930;DHT22;10127;47.780;9.606;2023-06-05T13:33:12;26.50;64.50
19930;DHT22;10127;47.780;9.606;2023-06-05T13:35:38;26.50;64.00
19930;DHT22;10127;47.780;9.606;2023-06-05T13:38:03;26.50;63.80
19930;DHT22;10127;47.780;9.606;2023-06-05T13:40:29;26.70;63.80
19930;DHT22;10127;47.780;9.606;2023-06-05T13:42:57;26.50;63.10
19930;DHT22;10127;47.780;9.606;2023-06-05T13:45:23;26.30;63.30
19930;DHT22;10127;47.780;9.606;2023-06-05T13:47:49;26.00;62.30
19930;DHT22;10127;47.780;9.606;2023-06-05T13:50:14;25.90;62.80
19930;DHT22;10127;47.780;9.606;2023-06-05T13:52:40;25.90;62.80
19930;DHT22;10127;47.780;9.606;2023-06-05T13:55:06;26.20;63.20
19930;DHT22;10127;47.780;9.606;2023-06-05T13:57:32;26.30;63.10
19930;DHT22;10127;47.780;9.606;2023-06-05T13:59:58;26.30;63.30
19930;DHT22;10127;47.780;9.606;2023-06-05T14:02:23;26.30;62.50
19930;DHT22;10127;47.780;9.606;2023-06-05T14:04:49;26.40;62.20
19930;DHT22;10127;47.780;9.606;2023-06-05T14:07:15;26.50;62.10
19930;DHT22;10127;47.780;9.606;2023-06-05T14:09:40;26.30;61.60
19930;DHT22;10127;47.780;9.606;2023-06-05T14:12:06;26.10;62.50
19930;DHT22;10127;47.780;9.606;2023-06-05T14:14:39;26.10;62.70
19930;DHT22;10127;47.780;9.606;2023-06-05T14:17:05;26.00;61.70
19930;DHT22;10127;47.780;9.606;2023-06-05T14:19:31;25.90;62.40
19930;DHT22;10127;47.780;9.606;2023-06-05T14:21:57;26.10;62.60
19930;DHT22;10127;47.780;9.606;2023-06-05T14:24:23;26.20;62.20
19930;DHT22;10127;47.780;9.606;2023-06-05T14:26:49;26.40;60.60
19930;DHT22;10127;47.780;9.606;2023-06-05T14:29:15;26.40;59.50
19930;DHT22;10127;47.780;9.606;2023-06-05T14:31:40;26.20;59.80
19930;DHT22;10127;47.780;9.606;2023-06-05T14:34:06;26.40;58.40
19930;DHT22;10127;47.780;9.606;2023-06-05T14:36:32;26.80;58.90
19930;DHT22;10127;47.780;9.606;2023-06-05T14:38:57;26.80;59.20
19930;DHT22;10127;47.780;9.606;2023-06-05T14:41:23;26.90;59.10
19930;DHT22;10127;47.780;9.606;2023-06-05T14:43:55;26.80;59.20
19930;DHT22;10127;47.780;9.606;2023-06-05T14:46:21;26.90;59.10
19930;DHT22;10127;47.780;9.606;2023-06-05T14:48:46;26.90;58.60
19930;DHT22;10127;47.780;9.606;2023-06-05T14:51:12;26.70;58.80
19930;DHT22;10127;47.780;9.606;2023-06-05T14:53:38;26.90;59.40
19930;DHT22;10127;47.780;9.606;2023-06-05T14:56:03;27.00;57.80
19930;DHT22;10127;47.780;9.606;2023-06-05T14:58:29;27.10;57.60
19930;DHT22;10127;47.780;9.606;2023-06-05T15:00:55;27.30;57.70
19930;DHT22;10127;47.780;9.606;2023-06-05T15:03:21;27.30;57.20
19930;DHT22;10127;47.780;9.606;2023-06-05T15:05:46;27.10;57.50
19930;DHT22;10127;47.780;9.606;2023-06-05T15:08:12;27.10;58.30
19930;DHT22;10127;47.780;9.606;2023-06-05T15:10:38;27.30;57.40
19930;DHT22;10127;47.780;9.606;2023-06-05T15:13:10;27.30;56.80
19930;DHT22;10127;47.780;9.606;2023-06-05T15:15:36;27.00;57.10
19930;DHT22;10127;47.780;9.606;2023-06-05T15:18:03;27.10;56.80
19930;DHT22;10127;47.780;9.606;2023-06-05T15:20:28;27.40;56.80
19930;DHT22;10127;47.780;9.606;2023-06-05T15:22:54;27.60;55.80
19930;DHT22;10127;47.780;9.606;2023-06-05T15:25:20;27.80;54.90
19930;DHT22;10127;47.780;9.606;2023-06-05T15:27:48;27.90;54.70
19930;DHT22;10127;47.780;9.606;2023-06-05T15:30:14;28.10;54.50
19930;DHT22;10127;47.780;9.606;2023-06-05T15:32:40;29.60;53.50
19930;DHT22;10127;47.780;9.606;2023-06-05T15:35:06;33.10;49.30
19930;DHT22;10127;47.780;9.606;2023-06-05T15:37:31;35.40;45.70
19930;DHT22;10127;47.780;9.606;2023-06-05T15:39:57;37.70;43.80
19930;DHT22;10127;47.780;9.606;2023-06-05T15:42:35;40.80;41.10
19930;DHT22;10127;47.780;9.606;2023-06-05T15:45:16;43.40;38.10
19930;DHT22;10127;47.780;9.606;2023-06-05T15:47:42;43.90;35.80
19930;DHT22;10127;47.780;9.606;2023-06-05T15:50:08;42.50;37.20
19930;DHT22;10127;47.780;9.606;2023-06-05T15:52:36;44.40;36.00
19930;DHT22;10127;47.780;9.606;2023-06-05T15:55:02;45.20;34.80
19930;DHT22;10127;47.780;9.606;2023-06-05T15:57:28;46.20;32.90
19930;DHT22;10127;47.780;9.606;2023-06-05T15:59:54;45.30;33.70
19930;DHT22;10127;47.780;9.606;2023-06-05T16:02:20;40.60;35.70
19930;DHT22;10127;47.780;9.606;2023-06-05T16:04:47;41.60;36.60
19930;DHT22;10127;47.780;9.606;2023-06-05T16:07:13;42.90;34.80
19930;DHT22;10127;47.780;9.606;2023-06-05T16:09:39;44.10;33.60
19930;DHT22;10127;47.780;9.606;2023-06-05T16:12:05;43.00;33.90
19930;DHT22;10127;47.780;9.606;2023-06-05T16:14:31;43.80;34.20
19930;DHT22;10127;47.780;9.606;2023-06-05T16:16:56;44.40;33.80
19930;DHT22;10127;47.780;9.606;2023-06-05T16:19:22;45.70;32.80
19930;DHT22;10127;47.780;9.606;2023-06-05T16:21:48;45.80;32.60
19930;DHT22;10127;47.780;9.606;2023-06-05T16:24:14;46.10;32.10
19930;DHT22;10127;47.780;9.606;2023-06-05T16:26:40;44.20;33.30
19930;DHT22;10127;47.780;9.606;2023-06-05T16:29:06;43.10;34.10